Time;durP1;ratioP1;P1;durP2;ratioP2;P2;SDS_P1;SDS_P2;PMS_P1;PMS_P2;Temp;Humidity;BMP_temperature;BMP_pressure;BME280_temperature;BME280_humidity;BME280_pressure;Samples;Min_cycle;Max_cycle;Signal;HPM_P1;HPM_P2
2020/12/26 00:00:22;;;;;;;3.47;2.60;;;;;;;16.15;69.35;102601.44;4817316;29;20097;-79
2020/12/26 00:02:48;;;;;;;6.00;2.50;;;;;;;16.15;69.32;102601.44;4802473;29;20645;-78
2020/12/26 00:05:13;;;;;;;3.38;2.30;;;;;;;16.16;69.30;102597.13;4807923;29;20094;-79
2020/12/26 00:07:38;;;;;;;3.42;2.38;;;;;;;16.14;69.41;102584.09;4832015;29;20025;-79
2020/12/26 00:10:05;;;;;;;5.00;2.83;;;;;;;16.16;69.08;102578.97;4831267;29;20029;-79
2020/12/26 00:12:30;;;;;;;4.38;2.35;;;;;;;16.13;69.28;102582.31;4840011;29;20038;-79
2020/12/26 00:14:55;;;;;;;3.60;2.38;;;;;;;16.12;68.78;102580.59;4831116;29;20061;-79
2020/12/26 00:17:21;;;;;;;4.47;2.35;;;;;;;16.15;69.02;102585.84;4845732;29;20037;-79
2020/12/26 00:19:46;;;;;;;3.85;2.40;;;;;;;16.16;69.10;102578.97;4829990;29;20072;-79
2020/12/26 00:22:12;;;;;;;3.72;2.20;;;;;;;16.13;68.60;102569.34;4843545;29;20029;-80
2020/12/26 00:24:37;;;;;;;3.55;2.30;;;;;;;16.13;68.91;102566.75;4811047;29;20045;-80
2020/12/26 00:27:02;;;;;;;4.00;2.30;;;;;;;16.13;68.81;102571.94;4831919;29;20037;-80
2020/12/26 00:29:28;;;;;;;3.85;2.03;;;;;;;16.14;69.05;102570.25;4843186;29;20097;-80
2020/12/26 00:31:53;;;;;;;3.33;2.13;;;;;;;16.12;69.11;102570.19;4837931;29;20128;-80
2020/12/26 00:34:19;;;;;;;3.55;2.17;;;;;;;16.13;68.63;102563.28;4827812;29;20098;-80
2020/12/26 00:36:44;;;;;;;2.95;1.90;;;;;;;16.13;69.11;102564.16;4832469;29;20026;-80
2020/12/26 00:39:10;;;;;;;3.50;1.92;;;;;;;16.13;68.84;102571.94;4811910;29;20030;-80
2020/12/26 00:41:35;;;;;;;4.18;2.28;;;;;;;16.13;68.78;102560.69;4826821;29;20397;-78
2020/12/26 00:44:00;;;;;;;3.45;2.30;;;;;;;16.12;68.98;102562.41;4803306;29;20125;-80
2020/12/26 00:46:26;;;;;;;3.13;2.15;;;;;;;16.13;69.14;102564.16;4812457;29;20098;-80
2020/12/26 00:48:51;;;;;;;2.75;1.92;;;;;;;16.12;69.97;102559.81;4833528;29;20465;-80
2020/12/26 00:51:16;;;;;;;2.55;1.88;;;;;;;16.12;68.68;102552.03;4830990;29;20089;-80
2020/12/26 00:53:42;;;;;;;3.80;2.20;;;;;;;16.12;69.09;102552.03;4808058;29;20125;-80
2020/12/26 00:56:08;;;;;;;2.88;2.05;;;;;;;16.12;69.01;102564.13;4824502;29;20022;-81
2020/12/26 00:58:33;;;;;;;2.70;1.73;;;;;;;16.11;69.16;102564.97;4791328;29;20049;-80
2020/12/26 01:00:58;;;;;;;3.15;2.10;;;;;;;16.10;68.14;102558.91;4805917;29;20129;-80
2020/12/26 01:03:24;;;;;;;2.80;1.85;;;;;;;16.11;68.45;102560.63;4806144;29;20089;-80
2020/12/26 01:05:49;;;;;;;4.55;1.92;;;;;;;16.09;69.21;102567.53;4776093;29;20034;-80
2020/12/26 01:08:14;;;;;;;3.33;1.80;;;;;;;16.09;68.70;102570.13;4817041;29;20038;-81
2020/12/26 01:10:40;;;;;;;3.20;1.75;;;;;;;16.11;68.50;102563.22;4799913;29;20041;-80
2020/12/26 01:13:05;;;;;;;3.10;1.80;;;;;;;16.11;68.29;102552.84;4800225;29;20066;-80
2020/12/26 01:15:31;;;;;;;3.47;1.77;;;;;;;16.10;68.38;102543.31;4808793;29;20034;-81
2020/12/26 01:17:56;;;;;;;2.53;1.60;;;;;;;16.11;68.88;102554.56;4823979;29;20038;-81
2020/12/26 01:20:21;;;;;;;2.95;1.98;;;;;;;16.10;68.29;102545.03;4808784;29;20061;-80
2020/12/26 01:22:47;;;;;;;2.58;1.70;;;;;;;16.08;69.08;102550.19;4809288;29;20482;-80
2020/12/26 01:25:13;;;;;;;2.60;1.60;;;;;;;16.08;67.79;102538.94;4796461;29;20030;-80
2020/12/26 01:27:38;;;;;;;2.33;1.60;;;;;;;16.09;68.06;102538.06;4818455;29;20039;-80
2020/12/26 01:30:05;;;;;;;3.35;1.80;;;;;;;16.08;68.39;102537.19;4818746;29;20041;-80
2020/12/26 01:32:31;;;;;;;2.50;1.65;;;;;;;16.06;68.64;102540.59;4805382;29;22259;-80
2020/12/26 01:34:58;;;;;;;1.75;1.30;;;;;;;16.09;68.22;102536.38;4801354;29;20095;-79
2020/12/26 01:37:24;;;;;;;2.88;1.55;;;;;;;16.07;68.59;102527.66;4790478;29;20038;-79
2020/12/26 01:39:49;;;;;;;2.88;1.58;;;;;;;16.08;69.19;102536.34;4790543;29;20386;-80
2020/12/26 01:42:15;;;;;;;3.13;1.88;;;;;;;16.08;67.81;102537.19;4806396;29;20106;-79
2020/12/26 01:44:40;;;;;;;3.45;1.73;;;;;;;16.07;68.59;102531.97;4790467;29;20394;-80
2020/12/26 01:47:07;;;;;;;1.90;1.33;;;;;;;16.06;67.83;102525.03;4790066;29;20487;-80
2020/12/26 01:49:33;;;;;;;2.05;1.50;;;;;;;16.06;68.01;102531.09;4817418;29;20117;-79
2020/12/26 01:51:59;;;;;;;2.10;1.50;;;;;;;16.07;67.94;102532.88;4825394;29;20098;-80
2020/12/26 01:54:25;;;;;;;2.15;1.30;;;;;;;16.04;67.99;102537.97;4820425;29;20381;-80
2020/12/26 01:56:51;;;;;;;2.40;1.50;;;;;;;16.06;68.45;102530.22;4808288;29;20045;-80
2020/12/26 01:59:16;;;;;;;2.28;1.30;;;;;;;16.03;66.07;102538.81;4793224;29;20039;-80
2020/12/26 02:01:43;;;;;;;3.03;1.67;;;;;;;16.03;68.65;102537.09;4817881;29;20117;-80
2020/12/26 02:04:12;;;;;;;2.05;1.40;;;;;;;16.03;68.53;102531.03;4802250;29;20034;-80
2020/12/26 02:06:43;;;;;;;2.35;1.50;;;;;;;16.02;68.24;102530.13;4806238;29;20513;-80
2020/12/26 02:09:11;;;;;;;2.13;1.23;;;;;;;16.03;67.88;102526.72;4822801;29;20475;-78
2020/12/26 02:11:36;;;;;;;2.47;1.50;;;;;;;16.05;68.21;102516.38;4811201;29;20064;-78
2020/12/26 02:14:02;;;;;;;2.45;1.35;;;;;;;16.05;67.50;102508.56;4780164;29;20031;-80
2020/12/26 02:16:27;;;;;;;2.50;1.38;;;;;;;16.03;68.21;102499.88;4804746;29;20610;-81
2020/12/26 02:18:54;;;;;;;3.63;1.50;;;;;;;16.00;67.34;102494.59;4808506;29;20042;-80
2020/12/26 02:21:22;;;;;;;2.53;1.20;;;;;;;15.99;66.27;102492.84;4823306;29;20121;-80
2020/12/26 02:23:48;;;;;;;1.95;1.40;;;;;;;16.00;68.20;102487.69;4795100;29;20122;-80
2020/12/26 02:26:14;;;;;;;1.95;1.35;;;;;;;16.03;67.53;102486.88;4816994;29;20066;-80
2020/12/26 02:28:40;;;;;;;2.15;1.30;;;;;;;16.02;67.12;102483.38;4794387;29;20105;-80
2020/12/26 02:31:07;;;;;;;3.25;1.25;;;;;;;15.98;67.37;102484.19;4819047;29;20035;-78
2020/12/26 02:33:34;;;;;;;1.65;1.13;;;;;;;15.99;68.33;102475.53;4796617;29;20033;-78
2020/12/26 02:36:04;;;;;;;2.08;1.20;;;;;;;15.99;67.98;102454.78;4808627;29;20043;-78
2020/12/26 02:38:29;;;;;;;3.10;1.40;;;;;;;16.00;67.85;102442.66;4804673;29;20202;-80
2020/12/26 02:40:54;;;;;;;2.17;1.20;;;;;;;15.99;67.37;102427.94;4804847;29;20042;-80
2020/12/26 02:43:24;;;;;;;2.55;1.20;;;;;;;15.99;67.46;102414.94;4798765;29;20042;-81
2020/12/26 02:45:51;;;;;;;2.83;1.20;;;;;;;16.00;67.19;102412.41;4823144;29;20074;-78
2020/12/26 02:48:17;;;;;;;1.73;1.20;;;;;;;15.97;66.94;102407.13;4811817;29;20041;-78
2020/12/26 02:50:42;;;;;;;1.88;1.13;;;;;;;15.93;66.09;102392.31;4784923;29;20113;-78
2020/12/26 02:53:09;;;;;;;1.65;1.30;;;;;;;15.96;67.38;102391.50;4840938;29;20058;-80
2020/12/26 02:55:34;;;;;;;3.38;1.35;;;;;;;15.98;67.00;102387.22;4799204;29;20117;-80
2020/12/26 02:58:00;;;;;;;1.58;0.90;;;;;;;15.96;67.46;102389.81;4814222;29;20120;-81
2020/12/26 03:00:25;;;;;;;2.47;1.10;;;;;;;15.96;67.73;102384.59;4828946;29;20398;-80
2020/12/26 03:02:51;;;;;;;2.60;1.17;;;;;;;15.98;67.23;102387.22;4813833;29;20066;-80
2020/12/26 03:05:16;;;;;;;1.85;0.95;;;;;;;15.98;67.06;102395.00;4846329;29;20090;-80
2020/12/26 03:07:42;;;;;;;2.00;1.13;;;;;;;15.95;67.14;102397.53;4847935;29;20030;-78
2020/12/26 03:10:07;;;;;;;2.45;1.10;;;;;;;15.95;67.13;102392.34;4799094;29;20030;-80
2020/12/26 03:12:32;;;;;;;1.98;1.00;;;;;;;15.91;65.71;102385.34;4810300;29;20041;-78
2020/12/26 03:14:58;;;;;;;2.35;1.30;;;;;;;15.94;67.74;102385.38;4813852;29;20034;-80
2020/12/26 03:17:23;;;;;;;1.92;1.20;;;;;;;15.95;66.45;102384.56;4818048;29;20442;-80
2020/12/26 03:19:49;;;;;;;2.50;1.25;;;;;;;15.94;67.13;102388.88;4816897;29;20482;-80
2020/12/26 03:22:14;;;;;;;1.83;1.02;;;;;;;15.95;67.43;102390.63;4839756;29;20401;-80
2020/12/26 03:24:39;;;;;;;1.55;0.90;;;;;;;15.91;64.84;102388.81;4846978;29;20033;-80
2020/12/26 03:27:05;;;;;;;1.90;1.10;;;;;;;15.93;67.22;102387.13;4827623;29;20034;-80
2020/12/26 03:29:30;;;;;;;2.28;1.10;;;;;;;15.92;66.99;102377.59;4831828;29;20038;-80
2020/12/26 03:31:55;;;;;;;1.50;1.10;;;;;;;15.96;66.96;102387.19;4816257;29;20040;-81
2020/12/26 03:34:22;;;;;;;1.75;1.00;;;;;;;15.96;67.88;102383.72;4863392;29;20037;-81
2020/12/26 03:36:47;;;;;;;1.60;0.90;;;;;;;15.97;66.99;102383.75;4835326;29;20125;-81
2020/12/26 03:39:12;;;;;;;2.10;1.20;;;;;;;15.95;66.25;102379.38;4828571;29;20105;-78
2020/12/26 03:41:38;;;;;;;1.70;1.05;;;;;;;15.92;65.44;102372.41;4812898;29;20037;-80
2020/12/26 03:44:03;;;;;;;1.80;0.90;;;;;;;15.93;67.53;102378.47;4831655;29;20044;-80
2020/12/26 03:46:28;;;;;;;2.35;1.20;;;;;;;15.96;67.10;102374.22;4804796;29;20186;-80
2020/12/26 03:48:54;;;;;;;1.88;1.05;;;;;;;15.92;66.36;102367.22;4829111;29;20033;-79
2020/12/26 03:51:19;;;;;;;1.40;1.00;;;;;;;15.93;66.70;102373.28;4831257;29;20085;-80
2020/12/26 03:53:45;;;;;;;1.50;0.90;;;;;;;15.94;67.00;102378.50;4831228;29;20077;-80
2020/12/26 03:56:16;;;;;;;2.00;1.00;;;;;;;15.93;67.53;102373.28;4846646;29;20070;-81
2020/12/26 03:58:41;;;;;;;1.65;0.90;;;;;;;15.93;67.11;102365.47;4858695;29;20045;-81
2020/12/26 04:01:07;;;;;;;1.75;0.98;;;;;;;15.95;66.75;102356.00;4811737;29;20132;-81
2020/12/26 04:03:32;;;;;;;2.38;1.10;;;;;;;15.96;66.64;102357.75;4828998;29;20128;-81
2020/12/26 04:05:58;;;;;;;1.50;0.60;;;;;;;15.93;66.15;102353.38;4842801;29;20034;-80
2020/12/26 04:08:23;;;;;;;1.75;0.90;;;;;;;15.93;65.82;102349.91;4818087;29;20041;-78
2020/12/26 04:10:49;;;;;;;1.90;1.02;;;;;;;15.91;65.34;102341.19;4828130;29;20082;-80
2020/12/26 04:13:14;;;;;;;1.90;0.90;;;;;;;15.94;66.65;102336.06;4835107;29;20094;-81
2020/12/26 04:15:39;;;;;;;1.60;0.85;;;;;;;15.92;65.08;102338.66;4804039;29;20401;-80
2020/12/26 04:18:04;;;;;;;1.70;1.00;;;;;;;15.93;67.04;102342.13;4817141;29;20056;-80
2020/12/26 04:20:30;;;;;;;1.20;0.80;;;;;;;15.89;65.09;102325.59;4830138;29;20460;-80
2020/12/26 04:22:55;;;;;;;2.55;1.05;;;;;;;15.93;66.91;102326.53;4801305;29;20555;-80
2020/12/26 04:25:20;;;;;;;2.20;0.85;;;;;;;15.96;67.16;102324.00;4813467;29;20519;-81
2020/12/26 04:27:46;;;;;;;2.15;1.00;;;;;;;15.97;66.25;102317.97;4857681;29;20462;-79
2020/12/26 04:30:12;;;;;;;1.17;0.77;;;;;;;15.93;66.22;102318.75;4826923;29;20033;-79
2020/12/26 04:32:37;;;;;;;2.33;1.00;;;;;;;15.90;64.64;102318.69;4830000;29;20033;-79
2020/12/26 04:35:03;;;;;;;1.65;0.93;;;;;;;15.93;66.95;102317.03;4842252;29;20058;-78
2020/12/26 04:37:29;;;;;;;1.95;0.90;;;;;;;15.96;66.26;102313.59;4828147;29;20675;-79
2020/12/26 04:39:54;;;;;;;1.60;0.95;;;;;;;15.93;66.74;102309.22;4833436;29;20485;-79
2020/12/26 04:42:21;;;;;;;1.13;0.70;;;;;;;15.89;64.64;102315.19;4827284;29;20077;-79
2020/12/26 04:44:47;;;;;;;1.20;0.80;;;;;;;15.92;66.95;102301.44;4834055;29;20449;-79
2020/12/26 04:47:16;;;;;;;1.10;0.80;;;;;;;15.91;66.35;102310.91;4845854;29;20025;-79
2020/12/26 04:49:46;;;;;;;1.77;0.75;;;;;;;15.93;66.60;102318.75;4807360;29;20037;-79
2020/12/26 04:52:16;;;;;;;1.65;0.90;;;;;;;15.88;65.37;102310.88;4827670;29;20498;-79
2020/12/26 04:54:43;;;;;;;2.83;0.73;;;;;;;15.91;66.51;102303.13;4843811;29;20030;-79
2020/12/26 04:57:09;;;;;;;1.40;0.82;;;;;;;15.91;66.12;102292.75;4827836;29;20041;-79
2020/12/26 04:59:34;;;;;;;1.42;0.90;;;;;;;15.88;65.95;102286.63;4849309;29;20029;-78
2020/12/26 05:02:01;;;;;;;1.48;0.80;;;;;;;15.88;65.92;102287.50;4830411;29;20041;-79
2020/12/26 05:04:26;;;;;;;1.65;0.80;;;;;;;15.90;66.61;102291.00;4846591;29;20042;-79
2020/12/26 05:06:53;;;;;;;1.40;0.70;;;;;;;15.93;66.33;102295.38;4820651;29;20034;-79
2020/12/26 05:09:20;;;;;;;0.95;0.57;;;;;;;15.93;65.76;102300.56;4844762;29;20542;-79
2020/12/26 05:11:56;;;;;;;1.45;0.70;;;;;;;15.91;66.39;102297.06;4853987;29;20025;-79
2020/12/26 05:14:23;;;;;;;1.38;0.73;;;;;;;15.90;66.87;102284.94;4844976;29;20465;-79
2020/12/26 05:16:48;;;;;;;1.77;0.70;;;;;;;15.90;66.70;102285.81;4843993;29;20112;-79
2020/12/26 05:19:14;;;;;;;1.42;0.75;;;;;;;15.91;66.61;102281.50;4842066;29;20113;-79
2020/12/26 05:21:39;;;;;;;1.15;0.52;;;;;;;15.86;64.43;102286.59;4828255;29;20116;-79
2020/12/26 05:24:07;;;;;;;1.10;0.60;;;;;;;15.88;64.88;102277.13;4851597;29;20622;-79
2020/12/26 05:26:47;;;;;;;1.20;0.77;;;;;;;15.89;66.57;102280.59;4836237;29;20085;-79
2020/12/26 05:29:14;;;;;;;1.02;0.60;;;;;;;15.90;66.31;102269.38;4847535;29;20478;-79
2020/12/26 05:31:44;;;;;;;2.80;0.80;;;;;;;15.87;64.60;102264.97;4828746;29;20061;-79
2020/12/26 05:34:10;;;;;;;1.33;0.80;;;;;;;15.85;64.34;102266.66;4842222;29;20033;-79
2020/12/26 05:36:36;;;;;;;1.48;0.60;;;;;;;15.83;64.26;102265.78;4827019;29;20443;-79
2020/12/26 05:39:02;;;;;;;1.52;0.65;;;;;;;15.87;66.73;102272.75;4811842;29;20393;-79
2020/12/26 05:41:31;;;;;;;0.63;0.50;;;;;;;15.84;64.22;102268.38;4827326;29;20038;-79
2020/12/26 05:43:57;;;;;;;1.67;0.60;;;;;;;15.85;63.67;102271.84;4838061;29;20501;-79
2020/12/26 05:46:22;;;;;;;0.82;0.55;;;;;;;15.87;64.75;102266.69;4811548;29;20038;-78
2020/12/26 05:48:48;;;;;;;1.60;0.82;;;;;;;15.88;65.82;102273.66;4828142;29;20382;-78
2020/12/26 05:51:25;;;;;;;2.22;0.77;;;;;;;15.88;66.41;102271.06;4807193;29;20036;-79
2020/12/26 05:53:56;;;;;;;1.52;0.70;;;;;;;15.85;63.77;102264.06;4822078;29;20045;-79
2020/12/26 05:56:22;;;;;;;0.85;0.70;;;;;;;15.86;64.98;102257.16;4852956;29;20030;-79
2020/12/26 05:58:47;;;;;;;1.17;0.60;;;;;;;15.87;66.19;102266.69;4861148;29;20485;-79
2020/12/26 06:01:20;;;;;;;0.80;0.55;;;;;;;15.85;66.35;102253.66;4852710;29;20032;-79
2020/12/26 06:03:45;;;;;;;1.02;0.75;;;;;;;15.88;66.51;102260.66;4842715;29;20029;-79
2020/12/26 06:06:13;;;;;;;2.25;0.70;;;;;;;15.85;64.70;102258.88;4848179;29;20044;-79
2020/12/26 06:08:39;;;;;;;1.40;0.63;;;;;;;15.83;64.68;102255.38;4859009;29;20025;-79
2020/12/26 06:11:06;;;;;;;2.10;0.57;;;;;;;15.81;64.44;102252.75;4833437;29;20033;-79
2020/12/26 06:13:33;;;;;;;1.33;0.50;;;;;;;15.84;64.75;102255.41;4838771;29;20120;-79
2020/12/26 06:16:11;;;;;;;0.70;0.50;;;;;;;15.81;65.10;102247.56;4837724;29;20037;-79
2020/12/26 06:18:41;;;;;;;1.52;0.60;;;;;;;15.83;64.22;102240.69;4841135;29;20116;-79
2020/12/26 06:21:07;;;;;;;2.05;0.65;;;;;;;15.79;64.07;102236.28;4833886;29;20037;-80
2020/12/26 06:23:36;;;;;;;1.48;0.63;;;;;;;15.79;63.50;102236.28;4814351;29;20034;-79
2020/12/26 06:26:02;;;;;;;0.93;0.63;;;;;;;15.82;63.78;102238.03;4856495;29;20033;-79
2020/12/26 06:28:30;;;;;;;0.70;0.60;;;;;;;15.84;64.86;102231.16;4835576;29;20139;-79
2020/12/26 06:31:09;;;;;;;1.15;0.43;;;;;;;15.82;64.31;102225.06;4840686;29;20083;-79
2020/12/26 06:33:46;;;;;;;1.20;0.65;;;;;;;15.81;65.53;102224.19;4834833;29;20511;-79
2020/12/26 06:36:13;;;;;;;0.70;0.43;;;;;;;15.82;65.46;102225.94;4845974;29;20089;-79
2020/12/26 06:38:39;;;;;;;1.63;0.50;;;;;;;15.78;63.21;102231.03;4827804;29;20059;-79
2020/12/26 06:41:14;;;;;;;0.73;0.60;;;;;;;15.81;65.96;102234.59;4833421;29;20064;-79
2020/12/26 06:43:39;;;;;;;2.45;0.70;;;;;;;15.82;65.63;102238.03;4843247;29;20026;-79
2020/12/26 06:46:14;;;;;;;1.25;0.60;;;;;;;15.83;64.92;102242.41;4844124;29;20029;-78
2020/12/26 06:48:40;;;;;;;1.45;0.60;;;;;;;15.79;63.65;102246.66;4843623;29;20029;-78
2020/12/26 06:51:25;;;;;;;1.15;0.50;;;;;;;15.80;65.37;102238.00;4841249;29;20026;-78
2020/12/26 06:53:52;;;;;;;1.52;0.70;;;;;;;15.77;64.86;102222.38;4813415;29;20094;-78
2020/12/26 06:56:35;;;;;;;0.73;0.50;;;;;;;15.81;64.87;102225.94;4796170;29;20447;-78
2020/12/26 06:59:05;;;;;;;1.00;0.52;;;;;;;15.81;63.32;102228.53;4854589;29;20389;-78
2020/12/26 07:01:35;;;;;;;1.35;0.63;;;;;;;15.80;63.44;102234.53;4867531;29;20041;-81
2020/12/26 07:04:17;;;;;;;0.98;0.60;;;;;;;15.80;63.76;102232.81;4843465;29;20048;-80
2020/12/26 07:06:49;;;;;;;0.95;0.60;;;;;;;15.82;65.35;102225.94;4821744;29;20392;-80
2020/12/26 07:09:17;;;;;;;1.15;0.60;;;;;;;15.80;63.67;102229.34;4842719;29;20033;-81
2020/12/26 07:11:51;;;;;;;1.38;0.60;;;;;;;15.81;64.13;102215.53;4841748;29;20029;-81
2020/12/26 07:14:30;;;;;;;1.65;0.70;;;;;;;15.82;65.30;102218.16;4828384;29;20438;-81
2020/12/26 07:16:57;;;;;;;0.90;0.60;;;;;;;15.87;65.20;102209.59;4833528;29;20030;-80
2020/12/26 07:19:24;;;;;;;1.20;0.50;;;;;;;15.84;63.80;102211.28;4840523;29;20481;-79
2020/12/26 07:21:57;;;;;;;0.93;0.47;;;;;;;15.87;65.68;102205.25;4843151;29;20033;-79
2020/12/26 07:24:28;;;;;;;2.05;0.80;;;;;;;15.90;64.51;102194.94;4828391;29;20031;-80
2020/12/26 07:26:53;;;;;;;1.77;0.60;;;;;;;15.92;64.75;102193.25;4853715;29;20038;-80
2020/12/26 07:29:26;;;;;;;1.38;0.60;;;;;;;15.90;64.43;102189.75;4816927;29;20102;-80
2020/12/26 07:31:52;;;;;;;0.80;0.50;;;;;;;15.92;64.74;102193.25;4839535;29;20025;-80
2020/12/26 07:34:38;;;;;;;1.20;0.63;;;;;;;15.93;64.59;102187.22;4840055;29;20141;-79
2020/12/26 07:37:05;;;;;;;1.08;0.60;;;;;;;15.93;64.50;102182.00;4813733;29;20063;-79
2020/12/26 07:39:30;;;;;;;1.52;0.43;;;;;;;15.92;64.27;102175.09;4805686;29;20038;-80
2020/12/26 07:41:56;;;;;;;0.68;0.43;;;;;;;15.93;64.27;102176.81;4797971;29;20045;-80
2020/12/26 07:44:29;;;;;;;1.15;0.45;;;;;;;15.94;64.06;102164.72;4819495;29;20037;-79
2020/12/26 07:46:56;;;;;;;0.65;0.43;;;;;;;15.94;63.75;102160.41;4807388;29;20056;-80
2020/12/26 07:49:23;;;;;;;0.52;0.30;;;;;;;15.95;64.38;102158.69;4799878;29;20392;-79
2020/12/26 07:52:05;;;;;;;2.13;0.50;;;;;;;15.95;64.11;102156.09;4845022;29;20509;-80
2020/12/26 07:54:30;;;;;;;2.63;0.60;;;;;;;15.94;64.42;102143.94;4830149;29;20041;-79
2020/12/26 07:56:56;;;;;;;2.78;0.73;;;;;;;15.95;64.27;102145.72;4834004;29;20037;-78
2020/12/26 07:59:23;;;;;;;5.75;2.20;;;;;;;15.95;63.99;102140.50;4818788;29;20037;-78
2020/12/26 08:01:50;;;;;;;10.18;2.80;;;;;;;15.99;62.78;102138.00;4836884;29;20026;-80
2020/12/26 08:17:18;;;;;;;8.15;1.83;;;;;;;16.24;61.84;102122.81;4866961;29;20056;-82
2020/12/26 08:20:49;;;;;;;5.07;1.45;;;;;;;16.25;60.50;102122.88;4863651;29;20018;-81
2020/12/26 08:23:15;;;;;;;4.25;1.52;;;;;;;16.29;61.16;102105.63;4807126;29;20070;-81
2020/12/26 09:34:59;;;;;;;2.53;1.17;;;;;;;16.61;59.67;102085.31;4876588;29;20125;-80
2020/12/26 09:45:10;;;;;;;2.33;1.00;;;;;;;16.64;60.01;102068.91;5013101;23;20066;-82
2020/12/26 09:50:12;;;;;;;3.05;0.85;;;;;;;16.62;59.80;102063.66;5334610;23;20058;-82
2020/12/26 09:52:38;;;;;;;6.85;1.20;;;;;;;16.63;60.10;102061.94;4831584;29;20044;-80
2020/12/26 09:55:07;;;;;;;1.95;0.77;;;;;;;16.63;59.82;102068.00;4821379;29;20128;-80
2020/12/26 09:57:33;;;;;;;1.80;0.98;;;;;;;16.63;60.15;102068.00;4829996;29;20166;-80
2020/12/26 09:59:58;;;;;;;2.95;0.98;;;;;;;16.64;60.18;102059.38;4842313;29;20104;-80
2020/12/26 10:02:31;;;;;;;3.35;0.82;;;;;;;16.67;59.68;102059.41;4868315;29;20093;-78
2020/12/26 10:04:56;;;;;;;2.05;0.90;;;;;;;16.70;60.44;102052.50;4851884;29;20040;-78
2020/12/26 10:07:21;;;;;;;2.30;0.90;;;;;;;16.72;60.43;102051.66;4840770;29;20029;-77
2020/12/26 10:10:10;;;;;;;1.55;0.70;;;;;;;16.72;59.86;102043.84;4856170;29;20037;-83
2020/12/26 10:12:37;;;;;;;4.55;1.00;;;;;;;16.70;60.32;102043.00;4870311;29;20031;-81
2020/12/26 10:15:10;;;;;;;4.53;1.02;;;;;;;16.70;59.84;102042.09;4832946;29;20030;-79
2020/12/26 10:17:35;;;;;;;1.73;0.80;;;;;;;16.70;59.71;102045.59;4834962;29;20034;-82
2020/12/26 10:20:01;;;;;;;4.97;2.00;;;;;;;16.76;60.41;102030.06;4856303;29;20297;-79
2020/12/26 10:22:26;;;;;;;3.70;2.55;;;;;;;16.77;59.91;102026.63;4857005;29;20061;-83
2020/12/26 10:24:52;;;;;;;2.88;2.17;;;;;;;16.77;60.18;102023.16;5080266;23;20023;-80
2020/12/26 10:27:17;;;;;;;2.65;2.00;;;;;;;16.78;60.14;102022.28;4901730;24;20045;-82
2020/12/26 10:33:18;;;;;;;3.10;1.70;;;;;;;16.80;60.33;102016.28;4855972;29;20084;-83
2020/12/26 10:47:31;;;;;;;3.05;1.20;;;;;;;16.77;60.65;102002.34;5621077;24;20062;-82
2020/12/26 10:50:22;;;;;;;2.10;1.08;;;;;;;16.80;60.20;102000.69;4818272;29;20076;-82
2020/12/26 10:53:28;;;;;;;2.17;0.93;;;;;;;16.81;60.84;101996.34;4844609;29;20030;-82
2020/12/26 10:55:54;;;;;;;2.53;1.17;;;;;;;16.81;60.07;101983.34;4807675;29;20027;-81
2020/12/26 10:58:20;;;;;;;2.05;0.93;;;;;;;16.77;60.54;101985.03;4828126;29;20031;-80
2020/12/26 11:01:26;;;;;;;3.92;1.10;;;;;;;16.81;60.64;101979.03;4815681;29;20022;-82
2020/12/26 11:04:12;;;;;;;2.30;0.93;;;;;;;16.81;60.12;101976.44;4845281;29;20038;-82
2020/12/26 11:06:38;;;;;;;1.60;0.80;;;;;;;16.78;60.76;101960.75;4816495;29;20129;-82
2020/12/26 11:09:04;;;;;;;2.17;0.88;;;;;;;16.79;60.70;101967.72;4794186;29;20117;-80
2020/12/26 11:11:37;;;;;;;3.03;0.90;;;;;;;16.78;60.10;101963.34;4828160;29;20026;-82
2020/12/26 11:14:04;;;;;;;3.22;0.80;;;;;;;16.81;60.76;101965.16;4830911;29;20026;-82
2020/12/26 11:17:06;;;;;;;1.90;0.80;;;;;;;16.80;60.63;101959.09;4815805;29;20034;-82
2020/12/26 11:19:31;;;;;;;2.10;0.80;;;;;;;16.79;60.46;101949.53;4766204;30;20129;-82
2020/12/26 11:21:56;;;;;;;2.38;0.70;;;;;;;16.80;60.83;101935.69;4795446;29;20043;-81
2020/12/26 11:24:22;;;;;;;2.65;0.73;;;;;;;16.79;60.53;101922.66;4780241;29;20121;-81
2020/12/26 11:26:48;;;;;;;3.00;0.80;;;;;;;16.82;60.39;101915.78;4821407;29;20033;-81
2020/12/26 11:29:14;;;;;;;1.92;0.88;;;;;;;16.84;60.50;101913.22;4839976;29;20477;-81
2020/12/26 11:31:42;;;;;;;2.00;0.85;;;;;;;16.81;60.09;101895.84;4818453;29;20038;-80
2020/12/26 11:34:10;;;;;;;1.38;0.70;;;;;;;16.82;60.08;101891.53;4827208;29;20034;-81
2020/12/26 11:36:36;;;;;;;1.90;0.75;;;;;;;16.82;60.73;101887.19;4781060;29;20042;-81
2020/12/26 11:39:02;;;;;;;1.70;0.82;;;;;;;16.81;60.41;101875.06;4809129;29;20043;-81
2020/12/26 11:41:28;;;;;;;2.00;0.90;;;;;;;16.82;60.30;101870.72;4822977;29;20026;-81
2020/12/26 11:43:55;;;;;;;1.55;0.80;;;;;;;16.83;60.19;101862.94;4780435;29;20125;-81
2020/12/26 11:46:20;;;;;;;1.42;0.75;;;;;;;16.86;60.60;101857.75;4837914;29;20114;-81
2020/12/26 11:48:46;;;;;;;1.45;0.90;;;;;;;16.85;61.01;101857.75;4799468;29;20082;-81
2020/12/26 11:51:11;;;;;;;2.33;0.90;;;;;;;16.86;60.27;101847.38;4825481;29;20038;-81
2020/12/26 11:53:37;;;;;;;1.58;0.70;;;;;;;16.85;60.29;101848.25;4810943;29;20034;-81
2020/12/26 11:56:11;;;;;;;1.52;0.70;;;;;;;16.85;60.48;101823.94;4834023;29;20516;-81
2020/12/26 11:58:37;;;;;;;1.50;0.80;;;;;;;16.85;60.24;101830.03;4827331;29;20057;-81
2020/12/26 12:01:03;;;;;;;1.27;0.65;;;;;;;16.89;59.95;101819.66;4806960;29;20071;-82
2020/12/26 12:03:29;;;;;;;1.27;0.70;;;;;;;16.89;60.86;101819.66;4826892;29;20038;-82
2020/12/26 12:06:15;;;;;;;0.80;0.50;;;;;;;16.89;60.15;101814.47;4825714;29;20045;-82
2020/12/26 12:09:05;;;;;;;1.33;0.68;;;;;;;16.89;60.02;101807.53;4839541;29;20036;-81
2020/12/26 12:17:30;;;;;;;1.35;0.60;;;;;;;16.92;60.54;101785.88;5091010;24;20065;-81
2020/12/26 12:19:56;;;;;;;1.35;0.60;;;;;;;16.92;60.60;101785.88;4819257;29;20027;-82
2020/12/26 12:22:21;;;;;;;1.23;0.80;;;;;;;16.94;60.36;101784.16;4779138;29;20067;-82
2020/12/26 12:24:49;;;;;;;1.17;0.60;;;;;;;16.96;61.01;101769.44;4782087;29;20026;-81
2020/12/26 12:27:15;;;;;;;1.70;0.70;;;;;;;16.96;60.37;101756.44;4797107;29;20071;-81
2020/12/26 12:29:41;;;;;;;1.75;0.65;;;;;;;16.96;61.06;101752.13;4800970;29;20106;-81
2020/12/26 12:32:46;;;;;;;1.30;0.65;;;;;;;16.97;60.34;101746.06;4831555;29;20065;-81
2020/12/26 12:35:15;;;;;;;1.30;0.65;;;;;;;16.98;60.77;101739.13;4827636;29;20067;-82
2020/12/26 12:38:02;;;;;;;1.10;0.60;;;;;;;16.98;60.60;101744.31;4813043;29;20038;-82
2020/12/26 12:40:28;;;;;;;1.30;0.60;;;;;;;16.96;60.77;101723.53;4824927;29;20034;-82
2020/12/26 12:46:01;;;;;;;1.33;0.55;;;;;;;16.96;60.80;101712.25;4829292;29;20034;-81
2020/12/26 12:48:27;;;;;;;2.90;0.60;;;;;;;16.99;60.65;101709.69;4814302;29;20038;-81
2020/12/26 12:50:53;;;;;;;1.75;0.57;;;;;;;16.95;60.76;101721.78;4800740;29;20171;-81
2020/12/26 12:58:59;;;;;;;1.33;0.60;;;;;;;16.96;61.22;101720.94;5509576;24;20278;-81
2020/12/26 13:01:24;;;;;;;1.38;0.70;;;;;;;17.00;60.58;101720.06;4856530;29;20933;-81
2020/12/26 13:03:50;;;;;;;1.52;0.60;;;;;;;17.00;60.73;101714.00;4826946;29;20030;-80
2020/12/26 13:06:19;;;;;;;1.38;0.60;;;;;;;17.00;60.82;101719.22;4843613;29;20473;-80
2020/12/26 13:08:45;;;;;;;1.00;0.63;;;;;;;16.97;60.44;101714.84;4820107;29;20040;-80
2020/12/26 13:11:11;;;;;;;0.85;0.50;;;;;;;17.00;61.01;101719.22;4855884;29;20063;-80
2020/12/26 13:13:37;;;;;;;1.02;0.65;;;;;;;16.99;60.98;101694.94;4828259;29;20033;-80
2020/12/26 13:16:02;;;;;;;0.82;0.50;;;;;;;17.00;60.56;101698.41;4807874;29;20062;-80
2020/12/26 13:18:27;;;;;;;2.67;0.60;;;;;;;17.01;60.33;101687.16;4816735;29;20101;-81
2020/12/26 13:20:53;;;;;;;2.22;0.68;;;;;;;17.00;60.80;101672.41;4846433;29;20065;-81
2020/12/26 13:23:18;;;;;;;2.42;0.70;;;;;;;17.00;60.38;101662.88;4870174;29;20036;-82
2020/12/26 13:25:43;;;;;;;0.93;0.52;;;;;;;17.02;60.86;101660.28;4845108;29;20044;-82
2020/12/26 13:28:09;;;;;;;1.58;0.60;;;;;;;17.00;61.07;101662.00;4834718;29;20045;-81
2020/12/26 13:30:34;;;;;;;1.27;0.70;;;;;;;17.00;60.67;101660.25;4824909;29;20033;-83